Time;durP1;ratioP1;P1;durP2;ratioP2;P2;SDS_P1;SDS_P2;PMS_P1;PMS_P2;Temp;Humidity;BMP_temperature;BMP_pressure;BME280_temperature;BME280_humidity;BME280_pressure;Samples;Min_cycle;Max_cycle;Signal;HPM_P1;HPM_P2
2022/08/05 00:00:49;;;;;;;;;;;;;;;;;;;;;
2022/08/05 00:03:39;;;;;;;;;;;;;;;;;;;;;
2022/08/05 00:06:17;;;;;;;;;;;;;;;;;;;;;
2022/08/05 00:09:20;;;;;;;2.57;1.30;;;;;;;25.20;42.99;98924.19;5054505;28;20186;-91
2022/08/05 00:12:35;;;;;;;4.17;2.07;;;;;;;25.06;43.14;98920.41;5037066;28;20553;-92
2022/08/05 00:15:11;;;;;;;3.73;1.73;;;;;;;24.99;43.34;98916.78;5036052;28;20182;-92
2022/08/05 00:18:04;;;;;;;3.90;1.90;;;;;;;24.93;43.72;98915.63;5036037;28;20632;-92
2022/08/05 00:21:02;;;;;;;;;;;;;;;;;;;;;
2022/08/05 00:23:32;;;;;;;2.73;1.67;;;;;;;24.93;43.41;98920.16;5038401;28;20577;-91
2022/08/05 00:26:02;;;;;;;3.53;1.30;;;;;;;;;;5036983;28;20174;-91
2022/08/05 00:28:58;;;;;;;4.23;1.33;;;;;;;24.93;43.12;98920.16;5035901;28;20182;-92
2022/08/05 00:31:46;;;;;;;1.80;1.23;;;;;;;24.92;42.92;98911.28;5036240;28;20166;-92
2022/08/05 00:34:37;;;;;;;3.37;1.60;;;;;;;24.86;43.33;98913.84;5036854;28;20175;-91
2022/08/05 00:41:01;;;;;;;;;;;;;;;;;;;;;
2022/08/05 00:47:00;;;;;;;2.50;1.30;;;;;;;24.56;44.81;98920.81;5055878;28;20201;-92
2022/08/05 00:50:18;;;;;;;;;;;;;;;;;;;;;
2022/08/05 00:56:16;;;;;;;;;;;;;;;;;;;;;
2022/08/05 00:58:45;;;;;;;2.80;1.50;;;;;;;24.49;45.23;98911.81;5056817;28;20167;-92
2022/08/05 01:01:37;;;;;;;2.10;1.33;;;;;;;24.42;45.31;98916.19;5038923;28;20192;-93
2022/08/05 01:04:23;;;;;;;;;;;;;;;;;;;;;
2022/08/05 01:07:32;;;;;;;;;;;;;;;;;;;;;
2022/08/05 01:10:15;;;;;;;;;;;;;;;;;;;;;
2022/08/05 01:12:57;;;;;;;;;;;;;;;;;;;;;
2022/08/05 01:16:07;;;;;;;;;;;;;;;;;;;;;
2022/08/05 01:19:23;;;;;;;;;;;;;;;;;;;;;
2022/08/05 01:26:10;;;;;;;;;;;;;;;;;;;;;
2022/08/05 01:33:35;;;;;;;;;;;;;;;;;;;;;
2022/08/05 01:36:46;;;;;;;;;;;;;;;;;;;;;
2022/08/05 01:39:56;;;;;;;;;;;;;;;;;;;;;
2022/08/05 01:42:53;;;;;;;2.27;1.37;;;;;;;23.95;47.11;98910.75;5050973;28;20213;-91
2022/08/05 01:49:13;;;;;;;;;;;;;;;;;;;;;
2022/08/05 01:52:38;;;;;;;;;;;;;;;;;;;;;
2022/08/05 01:55:51;;;;;;;2.13;1.30;;;;;;;23.86;47.70;98903.78;5017466;28;20194;-92
2022/08/05 02:05:29;;;;;;;;;;;;;;;;;;;;;
2022/08/05 02:09:02;;;;;;;;;;;;;;;;;;;;;
2022/08/05 02:22:51;;;;;;;;;;;;;;;;;;;;;
2022/08/05 02:25:57;;;;;;;4.30;1.93;;;;;;;23.34;50.53;98905.13;4955038;28;20212;-92
2022/08/05 02:50:14;;;;;;;;;;;;;;;;;;;;;
2022/08/05 04:17:58;;;;;;;;;;;;;;;;;;;;;
2022/08/05 04:24:16;;;;;;;3.73;1.87;;;;;;;23.85;57.32;98905.59;6026705;23;20236;-91
2022/08/05 04:27:35;;;;;;;;;;;;;;;;;;;;;
2022/08/05 04:30:12;;;;;;;;;;;;;;;;;;;;;
2022/08/05 04:33:04;;;;;;;3.90;1.80;;;;;;;24.16;56.86;98899.56;6066687;23;20271;-90
2022/08/05 04:39:19;;;;;;;;;;;;;;;;;;;;;
2022/08/05 04:42:40;;;;;;;;;;;;;;;;;;;;;
2022/08/05 04:45:17;;;;;;;3.27;1.53;;;;;;;24.55;54.72;98895.03;5917288;24;20695;-91
2022/08/05 04:47:43;;;;;;;3.07;1.77;;;;;;;24.64;53.48;98888.63;6015799;23;20162;-91
2022/08/05 04:50:53;;;;;;;;;;;;;;;;;;;;;
2022/08/05 04:54:25;;;;;;;;;;;;;;;;;;;;;
2022/08/05 05:04:10;;;;;;;2.60;1.73;;;;;;;25.53;48.95;98880.00;5971284;23;20153;-90
2022/08/05 05:06:46;;;;;;;2.87;1.60;;;;;;;25.62;47.45;98884.28;6011350;23;20182;-90
2022/08/05 05:09:12;;;;;;;2.83;1.40;;;;;;;25.71;46.78;98882.38;6016131;23;20150;-93
2022/08/05 05:11:52;;;;;;;3.57;1.60;;;;;;;25.75;47.41;98879.13;6015003;23;20172;-90
2022/08/05 05:15:10;;;;;;;;;;;;;;;;;;;;;
2022/08/05 05:18:02;;;;;;;3.67;1.67;;;;;;;25.87;46.68;98885.72;6154329;23;20182;-91
2022/08/05 05:34:14;;;;;;;;;;;;;;;;;;;;;
2022/08/05 05:37:17;;;;;;;;;;;;;;;;;;;;;
2022/08/05 05:39:53;;;;;;;;;;;;;;;;;;;;;
2022/08/05 05:43:11;;;;;;;4.47;1.70;;;;;;;26.36;45.54;98877.97;5946039;24;20331;-90
2022/08/05 06:06:07;;;;;;;;;;;;;;;;;;;;;
2022/08/05 06:09:17;;;;;;;7.17;2.07;;;;;;;27.70;44.98;98867.41;5740412;24;20244;-91
2022/08/05 06:19:33;;;;;;;8.18;2.20;;;;;;;27.84;43.63;98877.25;5817623;24;20242;-90
2022/08/05 06:29:39;;;;;;;3.65;1.60;;;;;;;28.62;41.73;98885.00;5701904;25;20555;-90
2022/08/05 06:51:33;;;;;;;3.95;2.15;;;;;;;29.96;38.81;98889.38;5693573;25;20178;-91
2022/08/05 07:05:22;;;;;;;2.85;1.88;;;;;;;30.97;36.28;98894.09;5739919;24;20212;-91
2022/08/05 07:19:47;;;;;;;;;;;;;;;;;;;;;
2022/08/05 07:30:45;;;;;;;;;;;;;;;;;;;;;
2022/08/05 07:47:43;;;;;;;;;;;;;;;;;;;;;
2022/08/05 07:54:14;;;;;;;3.08;1.48;;;;;;;34.68;31.51;98890.63;5840976;24;20294;-91
2022/08/05 08:01:28;;;;;;;;;;;;;;;;;;;;;
2022/08/05 08:08:16;;;;;;;;;;;;;;;;;;;;;
2022/08/05 08:11:37;;;;;;;2.10;1.17;;;;;;;35.58;29.77;98872.47;5876953;24;20247;-91
2022/08/05 08:25:51;;;;;;;;;;;;;;;;;;;;;
2022/08/05 09:11:08;;;;;;;;;;;;;;;;;;;;;
2022/08/05 09:24:49;;;;;;;;;;;;;;;;;;;;;
2022/08/05 09:31:31;;;;;;;;;;;;;;;;;;;;;
2022/08/05 09:34:19;;;;;;;2.08;1.00;;;;;;;37.97;25.92;98812.16;5769719;24;20196;-92
2022/08/05 09:37:44;;;;;;;2.20;1.10;;;;;;;37.89;26.61;98805.28;5770475;24;20541;-93
2022/08/05 09:40:55;;;;;;;;;;;;;;;;;;;;;
2022/08/05 09:47:23;;;;;;;;;;;;;;;;;;;;;
2022/08/05 09:50:37;;;;;;;1.02;0.73;;;;;;;37.59;25.60;98788.63;5877437;24;20270;-93
2022/08/05 10:04:55;;;;;;;;;;;;;;;;;;;;;
2022/08/05 10:07:49;;;;;;;1.10;0.52;;;;;;;38.51;23.94;98758.75;5818467;24;20173;-90
2022/08/05 10:11:07;;;;;;;;;;;;;;;;;;;;;
2022/08/05 10:14:06;;;;;;;;;;;;;;;;;;;;;
2022/08/05 10:16:43;;;;;;;1.27;0.70;;;;;;;38.63;24.28;98748.34;5844660;24;20253;-90
2022/08/05 10:19:26;;;;;;;4.00;0.80;;;;;;;38.16;23.95;98755.06;5844525;24;20642;-89
2022/08/05 10:22:22;;;;;;;1.45;0.55;;;;;;;38.15;25.00;98754.22;5899375;24;20157;-91
2022/08/05 10:25:40;;;;;;;;;;;;;;;;;;;;;
2022/08/05 10:28:08;;;;;;;3.20;0.90;;;;;;;38.99;24.32;98737.47;6038306;23;20350;-90
2022/08/05 10:31:32;;;;;;;1.38;0.85;;;;;;;39.12;23.13;98732.25;6038971;23;20142;-91
2022/08/05 10:34:13;;;;;;;1.60;1.00;;;;;;;39.03;23.15;98739.38;6038587;23;20198;-91
2022/08/05 10:44:21;;;;;;;2.42;0.90;;;;;;;38.54;23.60;98738.22;6066209;23;20157;-92
2022/08/05 10:51:13;;;;;;;1.88;0.90;;;;;;;38.72;24.34;98727.56;5898523;24;20172;-92
2022/08/05 10:57:45;;;;;;;;;;;;;;;;;;;;;
2022/08/05 11:00:43;;;;;;;2.08;0.90;;;;;;;39.96;23.00;98709.63;6094861;23;20156;-91
2022/08/05 11:03:22;;;;;;;2.03;1.02;;;;;;;40.25;23.19;98701.56;6160239;23;20165;-90
2022/08/05 11:06:23;;;;;;;1.65;0.70;;;;;;;40.00;22.77;98707.94;6162804;23;20209;-92
2022/08/05 11:09:10;;;;;;;1.00;0.70;;;;;;;40.32;24.21;98697.38;6160771;23;20143;-90
2022/08/05 11:11:39;;;;;;;2.08;1.05;;;;;;;40.44;22.67;98700.59;6186480;23;20158;-90
2022/08/05 11:14:07;;;;;;;3.72;1.23;;;;;;;40.37;21.47;98700.09;6160035;23;20181;-89
2022/08/05 11:16:35;;;;;;;2.40;0.82;;;;;;;40.73;21.11;98697.13;6186325;23;20478;-91
2022/08/05 11:19:54;;;;;;;;;;;;;;;;;;;;;
2022/08/05 11:22:57;;;;;;;1.40;0.85;;;;;;;40.46;21.82;98692.09;6180833;23;20546;-91
2022/08/05 11:25:43;;;;;;;;;;;;;;;;;;;;;
2022/08/05 11:28:45;;;;;;;;;;;;;;;;;;;;;
2022/08/05 11:31:14;;;;;;;1.08;0.63;;;;;;;39.51;22.99;98690.53;6186022;23;20512;-92
2022/08/05 11:33:55;;;;;;;1.92;1.05;;;;;;;40.24;21.96;98677.94;6160069;23;20582;-90
2022/08/05 11:37:27;;;;;;;1.58;0.85;;;;;;;40.29;21.51;98673.22;6185893;23;20154;-92
2022/08/05 11:39:54;;;;;;;2.40;0.77;;;;;;;40.43;22.68;98666.00;6080834;23;20160;-91
2022/08/05 11:42:57;;;;;;;;;;;;;;;;;;;;;
2022/08/05 11:45:46;;;;;;;3.25;0.90;;;;;;;39.66;22.14;98671.31;6202311;23;20208;-92
2022/08/05 11:48:25;;;;;;;;;;;;;;;;;;;;;
2022/08/05 11:51:01;;;;;;;2.30;0.80;;;;;;;38.99;23.10;98671.69;6134111;23;20155;-94
2022/08/05 11:53:29;;;;;;;1.25;0.55;;;;;;;39.28;22.26;98676.31;6154574;23;20302;-91
2022/08/05 11:55:56;;;;;;;1.35;0.70;;;;;;;39.28;22.56;98665.34;6129279;23;20258;-92
2022/08/05 11:58:47;;;;;;;1.98;0.85;;;;;;;40.01;22.00;98657.44;6154207;23;20151;-90
2022/08/05 12:01:16;;;;;;;1.55;0.95;;;;;;;39.97;22.40;98655.50;6154058;23;20179;-90
2022/08/05 12:03:59;;;;;;;4.65;0.80;;;;;;;39.58;21.62;98649.91;6154246;23;20510;-91
2022/08/05 12:06:34;;;;;;;1.95;0.80;;;;;;;39.64;22.69;98651.56;6155062;23;20158;-91
2022/08/05 12:09:01;;;;;;;3.60;1.05;;;;;;;40.06;22.53;98648.38;6129513;23;20174;-91
2022/08/05 12:11:32;;;;;;;2.10;0.80;;;;;;;40.42;21.75;98641.53;6197856;23;20157;-91
2022/08/05 12:14:07;;;;;;;1.75;1.00;;;;;;;40.71;21.66;98634.19;6189409;23;20177;-91
2022/08/05 12:16:42;;;;;;;2.15;0.70;;;;;;;40.42;21.55;98633.31;6190090;23;20151;-91
2022/08/05 12:19:10;;;;;;;1.58;0.80;;;;;;;41.04;20.58;98629.81;6215981;23;20192;-90
2022/08/05 12:21:56;;;;;;;1.65;0.88;;;;;;;41.33;20.46;98625.09;6173262;23;20237;-91
2022/08/05 12:24:35;;;;;;;;;;;;;;;;;;;;;
2022/08/05 12:27:27;;;;;;;0.98;0.60;;;;;;;40.36;21.58;98627.03;6215796;23;20543;-90
2022/08/05 12:30:06;;;;;;;1.65;0.65;;;;;;;40.42;21.20;98625.88;6215805;23;20138;-91
2022/08/05 12:32:34;;;;;;;1.73;0.70;;;;;;;40.46;21.82;98617.91;6216053;23;20154;-92
2022/08/05 12:35:06;;;;;;;1.00;0.60;;;;;;;40.59;21.02;98614.53;6190133;23;20185;-92
2022/08/05 12:37:34;;;;;;;1.23;0.75;;;;;;;40.18;21.34;98619.47;6189469;23;20169;-91
2022/08/05 12:40:00;;;;;;;1.48;0.85;;;;;;;40.47;21.53;98617.63;6187709;23;20582;-91
2022/08/05 12:42:28;;;;;;;1.00;0.70;;;;;;;40.56;21.59;98615.09;6189496;23;20169;-90
2022/08/05 12:45:06;;;;;;;1.67;0.65;;;;;;;40.90;20.72;98620.59;6214954;23;20162;-91
2022/08/05 12:47:35;;;;;;;1.15;0.65;;;;;;;40.87;20.51;98610.13;6189101;23;20153;-92
2022/08/05 12:50:16;;;;;;;1.48;0.70;;;;;;;40.93;21.17;98603.53;6188458;23;20164;-92
2022/08/05 12:52:58;;;;;;;1.40;0.70;;;;;;;41.05;20.42;98607.50;6165477;23;20149;-91
2022/08/05 12:55:28;;;;;;;2.13;0.70;;;;;;;40.73;21.33;98609.16;6189559;23;20617;-91
2022/08/05 12:57:55;;;;;;;0.57;0.40;;;;;;;39.17;22.23;98608.88;6189520;23;20161;-92
2022/08/05 13:00:24;;;;;;;1.77;0.82;;;;;;;39.29;21.95;98606.66;6164702;23;20170;-91
2022/08/05 13:03:13;;;;;;;1.23;0.70;;;;;;;39.64;21.70;98596.69;6189995;23;20240;-91
2022/08/05 13:05:40;;;;;;;1.52;1.00;;;;;;;40.18;22.13;98602.16;6215825;23;20157;-91
2022/08/05 13:08:07;;;;;;;4.20;1.55;;;;;;;40.43;21.85;98600.06;6189548;23;20176;-91
2022/08/05 13:10:44;;;;;;;1.65;0.80;;;;;;;40.48;21.61;98597.31;6189483;23;20149;-90
2022/08/05 13:13:11;;;;;;;2.47;0.60;;;;;;;40.45;21.99;98595.09;6209368;23;20186;-91
2022/08/05 13:15:38;;;;;;;1.63;0.70;;;;;;;40.57;21.57;98591.19;6189197;23;20639;-91
2022/08/05 13:18:05;;;;;;;1.45;0.60;;;;;;;40.06;21.34;98587.97;6166053;23;20188;-92
2022/08/05 13:20:35;;;;;;;1.20;0.63;;;;;;;39.94;22.02;98593.75;6216605;23;20224;-90
2022/08/05 13:23:02;;;;;;;1.20;0.68;;;;;;;39.82;20.81;98582.31;6216495;23;20169;-91
2022/08/05 13:25:31;;;;;;;0.75;0.50;;;;;;;39.88;21.76;98583.94;6217229;23;20153;-91
2022/08/05 13:27:58;;;;;;;1.17;0.68;;;;;;;40.09;21.41;98577.25;6217405;23;20154;-89
2022/08/05 13:30:28;;;;;;;2.00;1.00;;;;;;;40.28;21.04;98569.94;6190952;23;20157;-92
2022/08/05 13:32:55;;;;;;;1.05;0.60;;;;;;;40.26;21.27;98563.91;6217167;23;20574;-93
2022/08/05 13:35:21;;;;;;;1.58;0.90;;;;;;;40.18;21.93;98563.69;6217207;23;20154;-90
2022/08/05 13:37:48;;;;;;;1.77;0.90;;;;;;;39.70;22.23;98568.13;6166439;23;20164;-90
2022/08/05 13:40:16;;;;;;;1.73;0.63;;;;;;;40.04;21.90;98563.53;6216938;23;20185;-91
2022/08/05 13:42:42;;;;;;;1.00;0.63;;;;;;;40.41;20.71;98563.78;6191256;23;20149;-91
2022/08/05 13:45:09;;;;;;;2.10;0.70;;;;;;;40.16;21.39;98569.50;6217645;23;20158;-91
2022/08/05 13:47:36;;;;;;;1.50;0.75;;;;;;;39.75;21.47;98571.66;6217291;23;20159;-91
2022/08/05 13:50:04;;;;;;;2.88;1.02;;;;;;;39.43;21.65;98562.19;6217645;23;20461;-91
2022/08/05 13:52:29;;;;;;;3.08;1.20;;;;;;;39.60;21.46;98560.72;6217172;23;20153;-91
2022/08/05 13:54:56;;;;;;;1.58;1.02;;;;;;;39.74;21.13;98558.19;6217746;23;20316;-91
2022/08/05 13:57:22;;;;;;;1.30;0.50;;;;;;;39.79;21.68;98555.44;6190998;23;20154;-90
2022/08/05 13:59:48;;;;;;;1.13;0.60;;;;;;;39.87;20.66;98552.09;6190958;23;20154;-90
2022/08/05 14:02:14;;;;;;;1.60;0.75;;;;;;;40.07;20.86;98541.00;6190916;23;20236;-91
2022/08/05 14:07:32;;;;;;;4.45;3.08;;;;;;;40.41;20.16;98552.00;6217362;23;20145;-89
2022/08/05 14:09:58;;;;;;;1.00;0.60;;;;;;;40.37;20.41;98540.75;6217825;23;20146;-91
2022/08/05 14:12:23;;;;;;;2.80;1.00;;;;;;;40.12;21.11;98542.91;6217317;23;20215;-91
2022/08/05 14:14:49;;;;;;;1.63;0.80;;;;;;;40.29;20.94;98543.31;6191303;23;20182;-91
2022/08/05 14:17:14;;;;;;;1.52;0.95;;;;;;;40.44;20.96;98541.25;6217188;23;20145;-90
2022/08/05 14:19:41;;;;;;;3.20;0.90;;;;;;;39.76;21.38;98545.00;6217549;23;20502;-91
2022/08/05 14:22:09;;;;;;;4.20;1.00;;;;;;;39.39;21.60;98533.69;6216918;23;20150;-91
2022/08/05 14:24:42;;;;;;;1.73;0.90;;;;;;;38.98;22.05;98542.00;6190697;23;20154;-91
2022/08/05 14:27:08;;;;;;;1.35;0.73;;;;;;;38.78;22.29;98554.94;6191368;23;20506;-90
2022/08/05 14:29:33;;;;;;;4.45;1.20;;;;;;;38.55;22.37;98556.31;6216825;23;20154;-90
2022/08/05 14:31:59;;;;;;;2.08;0.85;;;;;;;38.72;22.36;98545.88;6190340;23;20153;-90
2022/08/05 14:34:24;;;;;;;2.67;1.10;;;;;;;38.86;22.35;98540.69;6216656;23;20252;-90
2022/08/05 14:36:50;;;;;;;6.47;1.42;;;;;;;38.95;22.30;98533.50;6216688;23;20153;-90
2022/08/05 14:39:15;;;;;;;1.95;1.00;;;;;;;38.98;22.01;98533.78;6190441;23;20154;-91
2022/08/05 14:41:41;;;;;;;1.38;0.80;;;;;;;38.98;22.29;98533.78;6216670;23;20261;-91
2022/08/05 14:44:06;;;;;;;2.55;1.23;;;;;;;39.10;22.46;98531.53;6190473;23;20166;-92
2022/08/05 14:46:32;;;;;;;1.63;0.90;;;;;;;38.99;21.99;98531.88;6216540;23;20232;-90
2022/08/05 14:49:00;;;;;;;1.10;0.52;;;;;;;38.98;21.67;98522.00;6216656;23;20159;-91
2022/08/05 14:51:29;;;;;;;6.85;1.35;;;;;;;39.08;20.81;98528.28;6190514;23;20164;-92
2022/08/05 14:53:54;;;;;;;1.00;0.57;;;;;;;39.10;22.16;98520.56;6190183;23;20197;-90
2022/08/05 14:56:22;;;;;;;1.73;0.80;;;;;;;39.45;21.56;98519.63;6216596;23;20481;-91
2022/08/05 14:58:51;;;;;;;1.48;0.57;;;;;;;39.65;20.68;98527.78;6190308;23;20594;-91
2022/08/05 15:01:18;;;;;;;1.33;0.82;;;;;;;39.63;20.53;98523.69;6191184;23;20222;-92
2022/08/05 15:03:44;;;;;;;3.17;0.80;;;;;;;39.15;21.54;98528.78;6216507;23;20573;-92
2022/08/05 15:06:11;;;;;;;1.42;0.60;;;;;;;39.13;22.47;98522.75;6190374;23;20241;-92
2022/08/05 15:08:40;;;;;;;1.98;0.82;;;;;;;39.20;22.28;98517.84;6190465;23;20183;-92
2022/08/05 15:11:07;;;;;;;1.55;0.80;;;;;;;39.13;22.14;98528.25;6190204;23;20154;-90
2022/08/05 15:13:33;;;;;;;3.08;0.70;;;;;;;38.99;22.21;98518.16;6190107;23;20384;-91
2022/08/05 15:16:01;;;;;;;1.58;0.88;;;;;;;38.91;21.81;98522.31;6216376;23;20213;-91
2022/08/05 15:18:26;;;;;;;1.15;0.73;;;;;;;38.82;22.05;98518.47;6216645;23;20157;-90
2022/08/05 15:20:52;;;;;;;2.30;1.13;;;;;;;38.88;21.93;98522.03;6216722;23;20577;-90
2022/08/05 15:23:17;;;;;;;2.45;1.23;;;;;;;38.88;22.01;98517.38;6190110;23;20212;-90
2022/08/05 15:25:43;;;;;;;2.35;1.17;;;;;;;38.85;22.40;98523.41;6216276;23;20145;-91
2022/08/05 15:28:09;;;;;;;1.35;0.70;;;;;;;38.77;22.25;98526.72;6216234;23;20476;-90
2022/08/05 15:30:35;;;;;;;0.80;0.40;;;;;;;38.72;22.11;98523.97;6216087;23;20499;-91
2022/08/05 15:33:05;;;;;;;2.28;0.90;;;;;;;38.62;22.69;98526.72;6216784;23;20194;-91
2022/08/05 15:35:30;;;;;;;1.45;0.77;;;;;;;38.57;22.74;98519.34;6189897;23;20160;-91
2022/08/05 15:37:56;;;;;;;1.75;0.80;;;;;;;38.58;22.67;98520.97;6216076;23;20149;-90
2022/08/05 15:40:22;;;;;;;1.50;0.77;;;;;;;38.61;22.64;98514.94;6216028;23;20204;-91
2022/08/05 15:42:48;;;;;;;4.13;0.75;;;;;;;38.43;23.77;98510.03;6189578;23;20150;-91
2022/08/05 15:45:13;;;;;;;3.85;1.30;;;;;;;38.36;22.88;98505.94;6216028;23;20161;-90
2022/08/05 15:47:41;;;;;;;1.80;0.88;;;;;;;38.39;22.83;98503.47;6189866;23;20226;-91
2022/08/05 15:50:07;;;;;;;1.27;0.82;;;;;;;38.39;23.28;98503.47;6215976;23;20237;-90
2022/08/05 15:52:35;;;;;;;0.80;0.50;;;;;;;38.40;22.97;98502.34;6216629;23;20219;-91
2022/08/05 15:55:02;;;;;;;2.33;1.23;;;;;;;38.48;22.84;98495.50;6189827;23;20627;-91
2022/08/05 15:57:28;;;;;;;2.00;0.90;;;;;;;38.47;22.46;98500.16;6189780;23;20157;-91
2022/08/05 15:59:53;;;;;;;1.42;0.80;;;;;;;38.47;23.17;98493.88;6216016;23;20517;-91
2022/08/05 16:02:19;;;;;;;1.48;0.70;;;;;;;38.36;22.33;98498.53;6189784;23;20488;-91
2022/08/05 16:04:46;;;;;;;1.83;0.90;;;;;;;38.52;22.38;98499.34;6190363;23;20468;-91
2022/08/05 16:07:11;;;;;;;2.00;1.02;;;;;;;38.58;21.69;98500.97;6189673;23;20477;-90
2022/08/05 16:09:37;;;;;;;2.92;0.75;;;;;;;38.48;22.57;98500.97;6190294;23;20269;-90
2022/08/05 16:12:03;;;;;;;1.92;0.85;;;;;;;38.38;22.03;98496.34;6216869;23;20160;-91
2022/08/05 16:14:28;;;;;;;1.90;0.75;;;;;;;38.31;22.34;98503.19;6189633;23;20274;-91
2022/08/05 16:16:54;;;;;;;4.28;0.73;;;;;;;38.36;22.63;98498.53;6215949;23;20150;-91
2022/08/05 16:19:30;;;;;;;1.60;0.90;;;;;;;37.93;22.83;98502.59;6190273;23;20153;-91
2022/08/05 16:22:18;;;;;;;2.00;1.00;;;;;;;37.91;23.45;98510.28;6215783;23;20134;-92
2022/08/05 16:24:44;;;;;;;2.30;1.17;;;;;;;37.50;23.79;98503.06;6189724;23;20483;-90
2022/08/05 16:27:09;;;;;;;1.50;0.93;;;;;;;37.60;23.51;98504.97;6189686;23;20169;-91
2022/08/05 16:29:35;;;;;;;1.48;0.70;;;;;;;37.56;23.56;98504.69;6189573;23;20192;-90
2022/08/05 16:32:00;;;;;;;2.63;0.80;;;;;;;37.40;23.16;98501.09;6216215;23;20180;-91
2022/08/05 16:34:26;;;;;;;2.13;0.80;;;;;;;37.38;23.73;98507.88;6215762;23;20281;-90
2022/08/05 16:36:55;;;;;;;3.85;0.98;;;;;;;37.31;23.46;98510.06;6216285;23;20158;-91
2022/08/05 16:39:41;;;;;;;3.22;0.75;;;;;;;37.27;23.51;98508.94;6189521;23;20157;-91
2022/08/05 16:42:07;;;;;;;1.98;0.70;;;;;;;37.13;23.72;98505.06;6189583;23;20172;-91
2022/08/05 16:44:32;;;;;;;1.88;1.00;;;;;;;37.21;23.77;98505.38;6189572;23;20145;-91
2022/08/05 16:46:58;;;;;;;1.77;1.00;;;;;;;37.23;23.69;98505.94;6215621;23;20165;-91
2022/08/05 16:49:25;;;;;;;1.08;0.73;;;;;;;37.22;23.23;98506.19;6215988;23;20150;-91
2022/08/05 16:51:51;;;;;;;1.15;0.70;;;;;;;37.20;23.58;98513.84;6189664;23;20165;-90
2022/08/05 16:54:16;;;;;;;2.03;0.63;;;;;;;37.13;23.47;98516.00;6215660;23;20173;-91
2022/08/05 16:56:46;;;;;;;2.08;1.05;;;;;;;37.01;24.10;98518.94;6217464;23;20220;-91
2022/08/05 16:59:15;;;;;;;2.83;1.10;;;;;;;36.87;24.10;98515.81;6191476;23;20154;-91
2022/08/05 17:01:40;;;;;;;2.30;0.90;;;;;;;36.72;24.22;98521.22;6191463;23;20197;-91
2022/08/05 17:04:06;;;;;;;1.85;0.90;;;;;;;36.56;24.88;98526.84;6191857;23;20153;-91
2022/08/05 17:06:32;;;;;;;1.58;0.85;;;;;;;36.42;25.17;98526.44;6218118;23;20146;-91
2022/08/05 17:08:57;;;;;;;2.15;0.98;;;;;;;36.44;25.13;98532.47;6218014;23;20150;-91
2022/08/05 17:11:23;;;;;;;1.50;0.80;;;;;;;36.35;25.06;98534.84;6192223;23;20592;-90
2022/08/05 17:13:49;;;;;;;2.60;0.95;;;;;;;36.38;24.79;98522.56;6191723;23;20188;-91
2022/08/05 17:16:14;;;;;;;2.65;1.38;;;;;;;36.36;25.59;98532.94;6191894;23;20185;-91
2022/08/05 17:18:40;;;;;;;3.13;0.98;;;;;;;36.37;25.60;98523.69;6217543;23;20150;-91
2022/08/05 17:21:05;;;;;;;1.85;0.95;;;;;;;36.29;25.77;98530.44;6191674;23;20558;-91
2022/08/05 17:23:31;;;;;;;3.60;1.10;;;;;;;36.22;25.98;98523.53;6218280;23;20142;-91
2022/08/05 17:26:00;;;;;;;1.80;1.05;;;;;;;36.23;26.19;98525.19;6217504;23;20146;-92
2022/08/05 17:28:25;;;;;;;2.97;1.17;;;;;;;36.15;26.01;98531.13;6191131;23;20150;-91
2022/08/05 17:30:51;;;;;;;4.55;1.17;;;;;;;36.03;25.91;98538.66;6191204;23;20172;-91
2022/08/05 17:33:16;;;;;;;2.25;0.80;;;;;;;35.81;26.71;98535.13;6191143;23;20185;-91
2022/08/05 17:35:42;;;;;;;6.03;1.20;;;;;;;35.63;26.43;98539.88;6217435;23;20558;-91
2022/08/05 17:38:08;;;;;;;2.42;1.02;;;;;;;35.41;26.76;98544.47;6192612;23;20158;-91
2022/08/05 17:40:35;;;;;;;1.52;0.82;;;;;;;35.18;26.99;98544.72;6191045;23;20199;-90
2022/08/05 17:43:01;;;;;;;3.70;1.25;;;;;;;35.13;27.26;98539.22;6217608;23;20476;-90
2022/08/05 17:45:27;;;;;;;1.80;1.08;;;;;;;35.12;27.24;98537.56;6190829;23;20208;-91
2022/08/05 17:47:53;;;;;;;1.85;0.90;;;;;;;35.03;27.74;98549.97;6217608;23;20154;-90
2022/08/05 17:50:21;;;;;;;3.15;1.02;;;;;;;35.03;27.40;98549.97;6191996;23;20508;-91
2022/08/05 17:52:47;;;;;;;3.17;1.20;;;;;;;34.91;28.10;98552.78;6217222;23;20146;-91
2022/08/05 17:55:12;;;;;;;5.82;1.30;;;;;;;34.78;28.10;98560.47;6217094;23;20609;-91
2022/08/05 17:57:39;;;;;;;2.35;1.30;;;;;;;34.73;28.40;98558.50;6190904;23;20608;-90
2022/08/05 18:00:16;;;;;;;2.40;1.33;;;;;;;34.63;28.47;98562.97;6190968;23;20169;-91
2022/08/05 18:02:41;;;;;;;4.10;1.33;;;;;;;34.70;28.19;98564.44;6217547;23;20130;-91
2022/08/05 18:05:12;;;;;;;2.03;1.00;;;;;;;34.61;28.47;98565.13;6191078;23;20150;-91
2022/08/05 18:07:47;;;;;;;7.00;1.55;;;;;;;34.55;28.61;98572.34;6190727;23;20148;-91
2022/08/05 18:10:16;;;;;;;2.17;1.00;;;;;;;34.45;28.98;98575.75;6191127;23;20137;-90
2022/08/05 18:12:44;;;;;;;2.55;1.00;;;;;;;34.45;28.76;98578.47;6190803;23;20150;-90
2022/08/05 18:15:09;;;;;;;3.97;1.27;;;;;;;34.44;29.03;98584.97;6191227;23;20605;-91
2022/08/05 18:17:37;;;;;;;3.22;1.10;;;;;;;34.24;28.85;98591.97;6191064;23;20154;-92
2022/08/05 18:20:11;;;;;;;2.85;0.93;;;;;;;34.23;28.72;98596.56;6217308;23;20153;-91
2022/08/05 18:22:44;;;;;;;4.10;1.48;;;;;;;34.15;29.48;98604.31;6190790;23;20153;-91
2022/08/05 18:25:10;;;;;;;1.55;0.88;;;;;;;34.12;29.79;98602.91;6217018;23;20134;-90
2022/08/05 18:27:35;;;;;;;8.13;1.60;;;;;;;34.04;29.15;98606.00;6217541;23;20159;-90
2022/08/05 18:30:01;;;;;;;3.30;1.30;;;;;;;33.93;29.71;98606.88;6217149;23;20199;-90
2022/08/05 18:32:29;;;;;;;2.78;1.27;;;;;;;33.84;29.88;98616.47;6217463;23;20224;-91
2022/08/05 18:34:57;;;;;;;2.95;1.30;;;;;;;33.64;30.16;98614.19;6215572;23;20370;-91
2022/08/05 18:37:25;;;;;;;2.90;1.50;;;;;;;33.60;29.86;98613.00;6190552;23;20577;-91
2022/08/05 18:39:56;;;;;;;2.40;1.33;;;;;;;33.56;30.15;98614.56;6215930;23;20537;-90
2022/08/05 18:42:21;;;;;;;5.07;1.40;;;;;;;33.25;30.37;98615.78;6190458;23;20220;-90
2022/08/05 18:44:47;;;;;;;2.60;1.23;;;;;;;33.19;30.70;98621.34;6216877;23;20166;-91
2022/08/05 18:47:12;;;;;;;5.22;1.52;;;;;;;33.19;30.82;98614.03;6217005;23;20527;-91
2022/08/05 18:52:31;;;;;;;2.10;1.30;;;;;;;33.08;31.19;98620.28;6216688;23;20565;-90
2022/08/05 18:54:56;;;;;;;2.53;1.38;;;;;;;33.13;30.96;98619.56;6190707;23;20173;-90
2022/08/05 18:57:22;;;;;;;1.98;1.27;;;;;;;33.00;31.37;98620.59;6216557;23;20146;-91
2022/08/05 18:59:48;;;;;;;3.10;1.38;;;;;;;32.99;31.09;98629.84;6190382;23;20215;-91
2022/08/05 19:02:13;;;;;;;1.70;0.98;;;;;;;33.00;31.57;98625.22;6190333;23;20181;-89
2022/08/05 19:04:39;;;;;;;1.75;1.13;;;;;;;32.89;32.25;98631.50;6190448;23;20236;-91
2022/08/05 19:07:12;;;;;;;3.35;1.88;;;;;;;32.89;32.02;98631.50;6216781;23;20149;-91
2022/08/05 19:09:38;;;;;;;3.08;1.52;;;;;;;32.65;32.53;98623.31;6217557;23;20141;-91
2022/08/05 19:12:03;;;;;;;5.25;1.52;;;;;;;32.58;32.98;98632.63;6191578;23;20158;-90
2022/08/05 19:14:33;;;;;;;4.55;1.30;;;;;;;32.57;33.00;98634.53;6216349;23;20503;-91
2022/08/05 19:17:01;;;;;;;2.90;1.48;;;;;;;32.12;33.93;98625.16;6216263;23;20169;-91
2022/08/05 19:19:29;;;;;;;4.22;1.77;;;;;;;32.22;33.48;98630.84;6189883;23;20158;-92
2022/08/05 19:21:55;;;;;;;3.85;1.80;;;;;;;32.28;34.08;98627.22;6190651;23;20253;-90
2022/08/05 19:24:20;;;;;;;3.65;1.60;;;;;;;32.29;33.96;98622.59;6216746;23;20221;-91
2022/08/05 19:26:46;;;;;;;2.88;1.63;;;;;;;32.28;33.83;98620.97;6216663;23;20157;-91
2022/08/05 19:29:21;;;;;;;4.07;1.77;;;;;;;32.34;33.84;98626.28;6216155;23;20157;-91
2022/08/05 19:31:55;;;;;;;2.20;1.30;;;;;;;32.32;34.10;98620.25;6190079;23;20155;-90
2022/08/05 19:34:23;;;;;;;2.90;1.65;;;;;;;32.20;34.47;98622.13;6216873;23;20169;-90
2022/08/05 19:36:51;;;;;;;2.70;1.60;;;;;;;32.08;34.58;98632.09;6216575;23;20145;-90
2022/08/05 19:39:17;;;;;;;2.97;1.40;;;;;;;31.93;34.92;98616.22;6216543;23;20209;-90
2022/08/05 19:41:42;;;;;;;3.75;1.90;;;;;;;31.89;34.80;98614.22;6216273;23;20162;-90
2022/08/05 19:44:08;;;;;;;2.67;1.63;;;;;;;32.08;34.85;98623.97;6190334;23;20150;-91
2022/08/05 19:46:36;;;;;;;2.10;1.30;;;;;;;32.04;34.98;98625.50;6189807;23;20180;-91
2022/08/05 19:49:03;;;;;;;3.05;1.63;;;;;;;32.12;34.71;98623.28;6189903;23;20157;-91
2022/08/05 19:51:31;;;;;;;3.20;1.67;;;;;;;32.21;34.92;98632.75;6216400;23;20177;-91
2022/08/05 19:53:56;;;;;;;3.30;1.50;;;;;;;32.28;34.72;98623.69;6190621;23;20499;-90
2022/08/05 19:56:22;;;;;;;5.32;1.80;;;;;;;32.29;34.42;98626.16;6216014;23;20229;-90
2022/08/05 19:58:47;;;;;;;3.58;1.50;;;;;;;32.23;34.67;98624.38;6189867;23;20153;-90
2022/08/05 20:01:13;;;;;;;3.17;1.80;;;;;;;32.20;35.07;98617.53;6215978;23;20161;-90
2022/08/05 20:03:38;;;;;;;6.35;1.73;;;;;;;32.20;35.09;98617.53;6216004;23;20635;-91
2022/08/05 20:06:05;;;;;;;4.68;1.73;;;;;;;32.22;34.87;98623.56;6216262;23;20215;-91